Time;durP1;ratioP1;P1;durP2;ratioP2;P2;SDS_P1;SDS_P2;PMS_P1;PMS_P2;Temp;Humidity;BMP_temperature;BMP_pressure;BME280_temperature;BME280_humidity;BME280_pressure;Samples;Min_cycle;Max_cycle;Signal;HPM_P1;HPM_P2
2022/06/14 00:00:53;;;;;;;;;;;;;;;;;;4922470;29;7266;-80
2022/06/14 00:02:25;;;;;;;;;;;;;;;;;;4939159;29;7001;-82
2022/06/14 00:04:51;;;;;;;;;;;;;;;;;;4922954;29;7003;-81
2022/06/14 00:07:16;;;;;;;;;;;;;;;;;;4922592;29;7060;-82
2022/06/14 00:09:42;;;;;;;;;;;;;;;;;;4922801;29;7060;-82
2022/06/14 00:12:07;;;;;;;;;;;;;;;;;;4922608;29;8307;-81
2022/06/14 00:14:33;;;;;;;;;;;;;;;;;;4921917;29;7023;-83
2022/06/14 00:16:59;;;;;;;;;;;;;;;;;;4922797;29;7019;-81
2022/06/14 00:19:24;;;;;;;;;;;;;;;;;;4922562;29;8762;-81
2022/06/14 00:21:50;;;;;;;;;;;;;;;;;;4922324;29;7227;-82
2022/06/14 00:24:15;;;;;;;;;;;;;;;;;;4922632;29;8640;-82
2022/06/14 00:26:40;;;;;;;;;;;;;;;;;;4922407;29;7014;-82
2022/06/14 00:29:06;;;;;;;;;;;;;;;;;;4922346;29;7000;-81
2022/06/14 00:31:32;;;;;;;;;;;;;;;;;;4922348;29;8324;-82
2022/06/14 00:33:58;;;;;;;;;;;;;;;;;;4921753;29;7006;-83
2022/06/14 00:36:29;;;;;;;;;;;;;;;;;;4922065;29;7560;-81
2022/06/14 00:38:56;;;;;;;;;;;;;;;;;;4921731;29;7257;-81
2022/06/14 00:41:31;;;;;;;;;;;;;;;;;;4922098;29;8469;-82
2022/06/14 00:43:56;;;;;;;;;;;;;;;;;;4922284;29;7044;-82
2022/06/14 00:46:26;;;;;;;;;;;;;;;;;;4922914;29;8444;-81
2022/06/14 00:49:06;;;;;;;;;;;;;;;;;;4921527;29;8431;-81
2022/06/14 00:51:36;;;;;;;;;;;;;;;;;;4922130;29;9002;-83
2022/06/14 00:54:19;;;;;;;;;;;;;;;;;;4921971;29;8788;-82
2022/06/14 00:56:49;;;;;;;;;;;;;;;;;;4921603;29;7179;-82
2022/06/14 00:59:25;;;;;;;;;;;;;;;;;;4922038;29;7175;-82
2022/06/14 01:01:55;;;;;;;;;;;;;;;;;;4921571;29;7138;-81
2022/06/14 01:04:25;;;;;;;;;;;;;;;;;;4921603;29;7029;-82
2022/06/14 01:06:54;;;;;;;;;;;;;;;;;;4921919;29;7173;-82
2022/06/14 01:09:32;;;;;;;;;;;;;;;;;;4921364;29;7029;-81
2022/06/14 01:12:03;;;;;;;;;;;;;;;;;;4921707;29;7052;-81
2022/06/14 01:14:38;;;;;;;;;;;;;;;;;;4921413;29;8720;-81
2022/06/14 01:17:04;;;;;;;;;;;;;;;;;;4921372;29;8813;-81
2022/06/14 01:19:29;;;;;;;;;;;;;;;;;;4921521;29;8554;-82
2022/06/14 01:22:01;;;;;;;;;;;;;;;;;;4921260;29;7027;-81
2022/06/14 01:24:27;;;;;;;;;;;;;;;;;;4921461;29;7244;-80
2022/06/14 01:26:54;;;;;;;;;;;;;;;;;;4920811;29;8385;-82
2022/06/14 01:29:23;;;;;;;;;;;;;;;;;;4921090;29;8314;-82
2022/06/14 01:31:52;;;;;;;;;;;;;;;;;;4920923;29;7040;-82
2022/06/14 01:34:19;;;;;;;;;;;;;;;;;;4921102;29;8374;-82
2022/06/14 01:36:45;;;;;;;;;;;;;;;;;;4921061;29;8554;-81
2022/06/14 01:39:14;;;;;;;;;;;;;;;;;;4920887;29;8470;-81
2022/06/14 01:41:55;;;;;;;;;;;;;;;;;;4921751;29;7286;-81
2022/06/14 01:44:39;;;;;;;;;;;;;;;;;;4921223;29;7166;-79
2022/06/14 01:47:05;;;;;;;;;;;;;;;;;;4921433;29;8395;-80
2022/06/14 01:52:24;;;;;;;;;;;;;;;;;;4938133;29;6760;-81
2022/06/14 01:54:50;;;;;;;;;;;;;;;;;;4920918;29;7036;-79
2022/06/14 01:57:31;;;;;;;;;;;;;;;;;;4920797;29;8650;-79
2022/06/14 01:59:56;;;;;;;;;;;;;;;;;;4921407;29;7468;-79
2022/06/14 02:02:22;;;;;;;;;;;;;;;;;;4920807;29;8312;-80
2022/06/14 02:04:50;;;;;;;;;;;;;;;;;;4920747;29;7018;-81
2022/06/14 02:07:41;;;;;;;;;;;;;;;;;;4920904;29;8434;-81
2022/06/14 02:10:11;;;;;;;;;;;;;;;;;;4920600;29;8297;-79
2022/06/14 02:12:36;;;;;;;;;;;;;;;;;;4920579;29;7027;-81
2022/06/14 02:15:05;;;;;;;;;;;;;;;;;;4920396;29;7382;-79
2022/06/14 02:17:42;;;;;;;;;;;;;;;;;;4920391;29;8398;-79
2022/06/14 02:20:16;;;;;;;;;;;;;;;;;;4920750;29;8821;-80
2022/06/14 02:22:46;;;;;;;;;;;;;;;;;;4921103;29;8461;-79
2022/06/14 02:25:23;;;;;;;;;;;;;;;;;;4920577;29;7169;-80
2022/06/14 02:27:55;;;;;;;;;;;;;;;;;;4920442;29;7034;-79
2022/06/14 02:30:28;;;;;;;;;;;;;;;;;;4920595;29;7416;-79
2022/06/14 02:33:03;;;;;;;;;;;;;;;;;;4920463;29;8596;-79
2022/06/14 02:35:32;;;;;;;;;;;;;;;;;;4920242;29;8454;-80
2022/06/14 02:37:58;;;;;;;;;;;;;;;;;;4917642;29;6985;-80
2022/06/14 02:41:02;;;;;;;;;;;;;;;;;;4921380;29;7131;-80
2022/06/14 02:43:33;;;;;;;;;;;;;;;;;;4904466;29;8789;-79
2022/06/14 02:46:08;;;;;;;;;;;;;;;;;;4904327;29;8410;-79
2022/06/14 02:48:47;;;;;;;;;;;;;;;;;;4904146;29;7205;-79
2022/06/14 02:51:21;;;;;;;;;;;;;;;;;;4904576;29;8606;-78
2022/06/14 02:53:52;;;;;;;;;;;;;;;;;;4904246;29;7351;-80
2022/06/14 02:56:24;;;;;;;;;;;;;;;;;;4904315;29;7151;-80
2022/06/14 02:58:57;;;;;;;;;;;;;;;;;;4904191;29;8423;-79
2022/06/14 03:01:27;;;;;;;;;;;;;;;;;;4904473;29;8496;-80
2022/06/14 03:03:58;;;;;;;;;;;;;;;;;;4904207;29;8312;-80
2022/06/14 03:06:32;;;;;;;;;;;;;;;;;;4904050;29;8747;-80
2022/06/14 03:09:17;;;;;;;;;;;;;;;;;;4903801;29;8369;-81
2022/06/14 03:11:43;;;;;;;;;;;;;;;;;;4904485;29;7199;-79
2022/06/14 03:14:23;;;;;;;;;;;;;;;;;;4910078;29;8815;-79
2022/06/14 03:16:57;;;;;;;;;;;;;;;;;;4921179;29;7158;-80
2022/06/14 03:19:33;;;;;;;;;;;;;;;;;;4920383;29;8435;-80
2022/06/14 03:21:59;;;;;;;;;;;;;;;;;;4920384;29;8453;-79
2022/06/14 03:24:54;;;;;;;;;;;;;;;;;;4920412;29;7026;-79
2022/06/14 03:27:19;;;;;;;;;;;;;;;;;;4915646;29;8447;-80
2022/06/14 03:29:51;;;;;;;;;;;;;;;;;;4920228;29;8437;-79
2022/06/14 03:32:30;;;;;;;;;;;;;;;;;;4920550;29;7025;-80
2022/06/14 03:35:05;;;;;;;;;;;;;;;;;;4920429;29;6813;-81
2022/06/14 03:37:32;;;;;;;;;;;;;;;;;;4920843;29;7169;-79
2022/06/14 03:40:03;;;;;;;;;;;;;;;;;;4923570;29;8392;-80
2022/06/14 03:42:29;;;;;;;;;;;;;;;;;;4923292;29;7227;-80
2022/06/14 03:44:54;;;;;;;;;;;;;;;;;;4923227;29;7148;-80
2022/06/14 03:47:24;;;;;;;;;;;;;;;;;;4922908;29;8735;-80
2022/06/14 03:49:49;;;;;;;;;;;;;;;;;;4921917;29;7154;-80
2022/06/14 03:52:15;;;;;;;;;;;;;;;;;;4922970;29;8267;-80
2022/06/14 03:54:43;;;;;;;;;;;;;;;;;;4923384;29;8395;-79
2022/06/14 03:57:25;;;;;;;;;;;;;;;;;;4922747;29;7170;-79
2022/06/14 04:00:11;;;;;;;;;;;;;;;;;;4923231;29;8585;-80
2022/06/14 04:02:53;;;;;;;;;;;;;;;;;;4922946;29;7162;-81
2022/06/14 04:05:27;;;;;;;;;;;;;;;;;;4922826;29;8410;-80
2022/06/14 04:08:02;;;;;;;;;;;;;;;;;;4922687;29;8687;-80
2022/06/14 04:10:27;;;;;;;;;;;;;;;;;;4922819;29;7153;-80
2022/06/14 04:13:03;;;;;;;;;;;;;;;;;;4922865;29;8363;-79
2022/06/14 04:15:47;;;;;;;;;;;;;;;;;;4922505;29;8690;-81
2022/06/14 04:18:34;;;;;;;;;;;;;;;;;;4922497;29;8390;-79
2022/06/14 04:21:09;;;;;;;;;;;;;;;;;;4922364;29;8426;-79
2022/06/14 04:23:40;;;;;;;;;;;;;;;;;;4922528;29;8447;-79
2022/06/14 04:26:14;;;;;;;;;;;;;;;;;;4922654;29;8656;-80
2022/06/14 04:28:47;;;;;;;;;;;;;;;;;;4922525;29;8301;-81
2022/06/14 04:31:26;;;;;;;;;;;;;;;;;;4922709;29;7114;-81
2022/06/14 04:34:06;;;;;;;;;;;;;;;;;;4922760;29;7167;-79
2022/06/14 04:36:39;;;;;;;;;;;;;;;;;;4922604;29;7404;-78
2022/06/14 04:39:33;;;;;;;;;;;;;;;;;;4922224;29;8759;-81
2022/06/14 04:42:09;;;;;;;;;;;;;;;;;;4913737;29;8438;-81
2022/06/14 04:44:41;;;;;;;;;;;;;;;;;;4921563;29;9175;-84
2022/06/14 04:47:06;;;;;;;;;;;;;;;;;;4922361;29;8480;-84
2022/06/14 04:49:40;;;;;;;;;;;;;;;;;;4921847;29;8857;-84
2022/06/14 04:52:23;;;;;;;;;;;;;;;;;;4921925;29;8406;-84
2022/06/14 04:54:55;;;;;;;;;;;;;;;;;;4922205;29;8737;-83
2022/06/14 04:57:35;;;;;;;;;;;;;;;;;;4921805;29;6961;-83
2022/06/14 05:00:15;;;;;;;;;;;;;;;;;;4921408;29;7062;-83
2022/06/14 05:02:47;;;;;;;;;;;;;;;;;;4921987;29;8777;-83
2022/06/14 05:05:18;;;;;;;;;;;;;;;;;;4921880;29;7613;-84
2022/06/14 05:07:49;;;;;;;;;;;;;;;;;;4921406;29;8369;-84
2022/06/14 05:10:25;;;;;;;;;;;;;;;;;;4921354;29;8434;-83
2022/06/14 05:12:58;;;;;;;;;;;;;;;;;;4921753;29;7214;-84
2022/06/14 05:15:32;;;;;;;;;;;;;;;;;;4921709;29;6951;-84
2022/06/14 05:18:04;;;;;;;;;;;;;;;;;;4921938;29;8735;-83
2022/06/14 05:20:46;;;;;;;;;;;;;;;;;;4921295;29;8409;-83
2022/06/14 05:23:21;;;;;;;;;;;;;;;;;;4921740;29;7404;-83
2022/06/14 05:26:07;;;;;;;;;;;;;;;;;;4921377;29;7167;-83
2022/06/14 05:28:38;;;;;;;;;;;;;;;;;;4901940;29;8738;-83
2022/06/14 05:31:39;;;;;;;;;;;;;;;;;;4920931;29;7256;-83
2022/06/14 05:34:16;;;;;;;;;;;;;;;;;;4882758;29;7142;-83
2022/06/14 05:36:52;;;;;;;;;;;;;;;;;;4879730;29;7041;-85
2022/06/14 05:39:31;;;;;;;;;;;;;;;;;;4885563;29;8383;-84
2022/06/14 05:42:04;;;;;;;;;;;;;;;;;;4913266;29;7113;-84
2022/06/14 05:44:31;;;;;;;;;;;;;;;;;;4914347;29;7746;-85
2022/06/14 05:47:04;;;;;;;;;;;;;;;;;;4915445;29;7034;-84
2022/06/14 05:49:34;;;;;;;;;;;;;;;;;;4915526;29;7147;-84
2022/06/14 05:52:08;;;;;;;;;;;;;;;;;;4914321;29;7243;-84
2022/06/14 05:54:39;;;;;;;;;;;;;;;;;;4915679;29;7014;-84
2022/06/14 05:57:05;;;;;;;;;;;;;;;;;;4915577;29;8329;-84
2022/06/14 05:59:40;;;;;;;;;;;;;;;;;;4914913;29;7114;-83
2022/06/14 06:02:15;;;;;;;;;;;;;;;;;;4915147;29;7419;-84
2022/06/14 06:04:49;;;;;;;;;;;;;;;;;;4915747;29;7023;-84
2022/06/14 06:07:19;;;;;;;;;;;;;;;;;;4921793;28;7045;-83
2022/06/14 06:09:50;;;;;;;;;;;;;;;;;;4954351;28;8319;-85
2022/06/14 06:12:23;;;;;;;;;;;;;;;;;;4954197;28;7251;-85
2022/06/14 06:14:57;;;;;;;;;;;;;;;;;;4954207;29;8416;-85
2022/06/14 06:17:34;;;;;;;;;;;;;;;;;;4954825;29;8695;-86
2022/06/14 06:20:19;;;;;;;;;;;;;;;;;;4938234;29;7426;-85
2022/06/14 06:22:54;;;;;;;;;;;;;;;;;;4947131;28;8438;-85
2022/06/14 06:25:29;;;;;;;;;;;;;;;;;;4954900;29;8404;-86
2022/06/14 06:27:57;;;;;;;;;;;;;;;;;;4954715;29;8435;-86
2022/06/14 06:30:27;;;;;;;;;;;;;;;;;;4955191;28;7027;-85
2022/06/14 06:32:54;;;;;;;;;;;;;;;;;;4954792;29;8385;-85
2022/06/14 06:35:25;;;;;;;;;;;;;;;;;;4953896;28;8752;-85
2022/06/14 06:37:56;;;;;;;;;;;;;;;;;;4935173;29;7024;-84
2022/06/14 06:40:23;;;;;;;;;;;;;;;;;;4918792;29;7062;-84
2022/06/14 06:42:58;;;;;;;;;;;;;;;;;;4918435;29;8422;-85
2022/06/14 06:45:28;;;;;;;;;;;;;;;;;;4918098;29;8400;-85
2022/06/14 06:48:02;;;;;;;;;;;;;;;;;;4918225;29;8288;-85
2022/06/14 06:50:44;;;;;;;;;;;;;;;;;;4932573;29;8260;-85
2022/06/14 06:53:15;;;;;;;;;;;;;;;;;;4938402;29;6827;-85
2022/06/14 06:55:54;;;;;;;;;;;;;;;;;;4938878;29;7167;-85
2022/06/14 06:58:36;;;;;;;;;;;;;;;;;;4938857;29;8446;-85
2022/06/14 07:01:10;;;;;;;;;;;;;;;;;;4938851;29;7421;-85
2022/06/14 07:03:48;;;;;;;;;;;;;;;;;;4938579;29;8476;-85
2022/06/14 07:06:27;;;;;;;;;;;;;;;;;;4939576;29;7179;-85
2022/06/14 07:08:56;;;;;;;;;;;;;;;;;;4939330;29;8411;-85
2022/06/14 07:11:27;;;;;;;;;;;;;;;;;;4954965;29;7038;-86
2022/06/14 07:13:56;;;;;;;;;;;;;;;;;;4939350;29;7037;-86
2022/06/14 07:16:30;;;;;;;;;;;;;;;;;;4938555;29;8698;-86
2022/06/14 07:19:15;;;;;;;;;;;;;;;;;;4937689;29;7431;-85
2022/06/14 07:21:45;;;;;;;;;;;;;;;;;;4938282;29;8629;-85
2022/06/14 07:24:28;;;;;;;;;;;;;;;;;;4938453;29;8694;-85
2022/06/14 07:26:58;;;;;;;;;;;;;;;;;;4940746;28;7301;-86
2022/06/14 07:29:26;;;;;;;;;;;;;;;;;;4940829;28;7009;-85
2022/06/14 07:32:03;;;;;;;;;;;;;;;;;;4955572;28;8424;-85
2022/06/14 07:34:30;;;;;;;;;;;;;;;;;;4940237;28;7135;-86
2022/06/14 07:37:19;;;;;;;;;;;;;;;;;;4939162;28;8502;-85
2022/06/14 07:39:44;;;;;;;;;;;;;;;;;;4937094;29;8593;-85
2022/06/14 07:42:19;;;;;;;;;;;;;;;;;;4936938;29;8388;-85
2022/06/14 07:44:47;;;;;;;;;;;;;;;;;;4953553;28;8402;-84
2022/06/14 07:47:32;;;;;;;;;;;;;;;;;;4937731;29;6800;-85
2022/06/14 07:49:57;;;;;;;;;;;;;;;;;;4937266;29;7021;-86
2022/06/14 07:52:42;;;;;;;;;;;;;;;;;;4938325;29;7008;-85
2022/06/14 07:55:15;;;;;;;;;;;;;;;;;;4938358;29;7163;-86
2022/06/14 07:57:45;;;;;;;;;;;;;;;;;;4952998;28;8309;-85
2022/06/14 08:03:10;;;;;;;;;;;;;;;;;;4910163;29;6821;-86
2022/06/14 08:05:38;;;;;;;;;;;;;;;;;;4918245;29;7874;-85
2022/06/14 08:08:07;;;;;;;;;;;;;;;;;;4919480;29;8293;-85
2022/06/14 08:10:41;;;;;;;;;;;;;;;;;;4918730;29;7051;-85
2022/06/14 08:13:15;;;;;;;;;;;;;;;;;;4923370;29;8805;-85
2022/06/14 08:15:45;;;;;;;;;;;;;;;;;;4916238;29;8794;-85
2022/06/14 08:18:18;;;;;;;;;;;;;;;;;;4916172;29;8465;-84
2022/06/14 08:20:48;;;;;;;;;;;;;;;;;;4918705;29;7200;-86
2022/06/14 08:23:19;;;;;;;;;;;;;;;;;;4919713;29;7121;-86
2022/06/14 08:25:49;;;;;;;;;;;;;;;;;;4919282;29;7138;-85
2022/06/14 08:28:24;;;;;;;;;;;;;;;;;;4919273;29;8804;-86
2022/06/14 08:30:58;;;;;;;;;;;;;;;;;;4919474;29;7177;-85
2022/06/14 08:33:29;;;;;;;;;;;;;;;;;;4919161;29;8421;-86
2022/06/14 08:36:00;;;;;;;;;;;;;;;;;;4918613;29;8355;-85
2022/06/14 08:38:31;;;;;;;;;;;;;;;;;;4919075;29;7163;-86
2022/06/14 08:41:13;;;;;;;;;;;;;;;;;;4919581;29;7190;-85
2022/06/14 08:43:43;;;;;;;;;;;;;;;;;;4919563;29;7220;-84
2022/06/14 08:46:11;;;;;;;;;;;;;;;;;;4918929;29;7069;-85
2022/06/14 08:48:40;;;;;;;;;;;;;;;;;;4915772;29;7132;-86
2022/06/14 08:51:12;;;;;;;;;;;;;;;;;;4919581;29;7381;-85
2022/06/14 08:53:56;;;;;;;;;;;;;;;;;;4918615;29;7150;-85
2022/06/14 08:56:41;;;;;;;;;;;;;;;;;;4934126;29;8415;-85
2022/06/14 08:59:19;;;;;;;;;;;;;;;;;;4934360;29;8339;-86
2022/06/14 09:01:59;;;;;;;;;;;;;;;;;;4934391;29;8309;-86
2022/06/14 09:04:43;;;;;;;;;;;;;;;;;;4933926;29;7232;-86
2022/06/14 09:07:27;;;;;;;;;;;;;;;;;;4933995;29;7075;-86
2022/06/14 09:09:52;;;;;;;;;;;;;;;;;;4933784;29;7132;-86
2022/06/14 09:12:18;;;;;;;;;;;;;;;;;;4923229;29;8510;-85
2022/06/14 09:14:47;;;;;;;;;;;;;;;;;;4926900;28;11995;-86
2022/06/14 09:17:32;;;;;;;;;;;;;;;;;;4933738;29;8335;-86
2022/06/14 09:19:57;;;;;;;;;;;;;;;;;;4950136;28;8567;-86
2022/06/14 09:22:32;;;;;;;;;;;;;;;;;;4937282;29;8696;-86
2022/06/14 09:25:00;;;;;;;;;;;;;;;;;;4937038;29;8390;-85
2022/06/14 09:27:40;;;;;;;;;;;;;;;;;;4937011;29;7352;-85
2022/06/14 09:30:15;;;;;;;;;;;;;;;;;;4937070;29;8427;-86
2022/06/14 09:33:16;;;;;;;;;;;;;;;;;;4936902;29;8711;-85
2022/06/14 09:35:42;;;;;;;;;;;;;;;;;;4920433;29;6817;-86
2022/06/14 09:38:27;;;;;;;;;;;;;;;;;;4932364;29;7027;-86
2022/06/14 09:40:59;;;;;;;;;;;;;;;;;;4936822;29;8373;-85
2022/06/14 09:43:47;;;;;;;;;;;;;;;;;;4936835;29;8848;-85
2022/06/14 09:46:12;;;;;;;;;;;;;;;;;;4936964;29;8613;-85
2022/06/14 09:48:41;;;;;;;;;;;;;;;;;;4950776;28;7162;-86
2022/06/14 09:51:09;;;;;;;;;;;;;;;;;;4936907;29;9344;-86
2022/06/14 09:53:35;;;;;;;;;;;;;;;;;;4937062;29;7164;-86
2022/06/14 09:56:36;;;;;;;;;;;;;;;;;;4936082;29;8474;-86
2022/06/14 09:59:10;;;;;;;;;;;;;;;;;;4923366;29;8394;-85
2022/06/14 10:01:38;;;;;;;;;;;;;;;;;;4919749;29;8942;-85
2022/06/14 10:04:03;;;;;;;;;;;;;;;;;;4919352;29;8438;-85
2022/06/14 10:06:48;;;;;;;;;;;;;;;;;;4919860;29;6984;-85
2022/06/14 10:09:32;;;;;;;;;;;;;;;;;;4919477;29;7266;-81
2022/06/14 10:12:12;;;;;;;;;;;;;;;;;;4919855;29;7226;-82
2022/06/14 10:14:52;;;;;;;;;;;;;;;;;;4919955;29;8752;-81
2022/06/14 10:17:24;;;;;;;;;;;;;;;;;;4918612;29;7170;-82
2022/06/14 10:20:10;;;;;;;;;;;;;;;;;;4919561;29;7395;-81
2022/06/14 10:22:51;;;;;;;;;;;;;;;;;;4919514;29;7187;-82
2022/06/14 10:25:25;;;;;;;;;;;;;;;;;;4918278;29;7129;-83
2022/06/14 10:28:11;;;;;;;;;;;;;;;;;;4935299;29;7267;-83
2022/06/14 10:30:37;;;;;;;;;;;;;;;;;;4935510;29;7210;-81
2022/06/14 10:33:18;;;;;;;;;;;;;;;;;;4926468;29;7052;-83
2022/06/14 10:36:04;;;;;;;;;;;;;;;;;;4952459;29;8483;-82
2022/06/14 10:38:41;;;;;;;;;;;;;;;;;;4928369;28;8305;-84
2022/06/14 10:41:19;;;;;;;;;;;;;;;;;;4954115;28;7107;-86
2022/06/14 10:43:50;;;;;;;;;;;;;;;;;;4950308;28;8502;-86
2022/06/14 10:46:39;;;;;;;;;;;;;;;;;;4948284;28;7465;-86
2022/06/14 10:49:08;;;;;;;;;;;;;;;;;;4933766;29;7245;-85
2022/06/14 10:51:36;;;;;;;;;;;;;;;;;;4934510;29;8352;-85
2022/06/14 10:54:02;;;;;;;;;;;;;;;;;;4935919;29;7046;-85
2022/06/14 10:56:46;;;;;;;;;;;;;;;;;;4933691;29;8732;-86
2022/06/14 10:59:14;;;;;;;;;;;;;;;;;;4936002;29;8376;-87
2022/06/14 11:02:00;;;;;;;;;;;;;;;;;;4939294;29;8327;-87
2022/06/14 11:04:45;;;;;;;;;;;;;;;;;;4939839;29;8747;-86
2022/06/14 11:07:33;;;;;;;;;;;;;;;;;;4939806;29;8295;-85
2022/06/14 11:10:19;;;;;;;;;;;;;;;;;;4939614;29;8443;-85
2022/06/14 11:12:44;;;;;;;;;;;;;;;;;;4936742;29;8808;-85
2022/06/14 11:15:31;;;;;;;;;;;;;;;;;;4953567;28;8383;-86
2022/06/14 11:18:09;;;;;;;;;;;;;;;;;;4938325;29;7925;-85
2022/06/14 11:20:43;;;;;;;;;;;;;;;;;;4939838;29;7137;-85
2022/06/14 11:23:14;;;;;;;;;;;;;;;;;;4939164;29;8469;-85
2022/06/14 11:25:48;;;;;;;;;;;;;;;;;;4939020;29;7459;-85
2022/06/14 11:28:20;;;;;;;;;;;;;;;;;;4955266;28;8407;-85
2022/06/14 11:31:03;;;;;;;;;;;;;;;;;;4939236;29;7059;-85
2022/06/14 11:33:49;;;;;;;;;;;;;;;;;;4937788;29;7083;-85
2022/06/14 11:36:24;;;;;;;;;;;;;;;;;;4938161;29;7007;-85
2022/06/14 11:38:49;;;;;;;;;;;;;;;;;;4938650;29;7334;-85
2022/06/14 11:41:19;;;;;;;;;;;;;;;;;;4938476;29;9200;-86
2022/06/14 11:44:13;;;;;;;;;;;;;;;;;;4920726;29;7279;-86
2022/06/14 11:46:44;;;;;;;;;;;;;;;;;;4920096;29;9595;-85
2022/06/14 11:49:24;;;;;;;;;;;;;;;;;;4930440;29;8301;-86
2022/06/14 11:52:05;;;;;;;;;;;;;;;;;;4938922;29;7392;-86
2022/06/14 11:54:31;;;;;;;;;;;;;;;;;;4938917;29;7179;-86
2022/06/14 11:57:04;;;;;;;;;;;;;;;;;;4938819;29;8846;-86
2022/06/14 11:59:29;;;;;;;;;;;;;;;;;;4938796;29;8699;-86
2022/06/14 12:02:04;;;;;;;;;;;;;;;;;;4938501;29;8558;-86
2022/06/14 12:04:39;;;;;;;;;;;;;;;;;;4938638;29;7170;-85
2022/06/14 12:07:14;;;;;;;;;;;;;;;;;;4939262;29;7551;-86
2022/06/14 12:09:45;;;;;;;;;;;;;;;;;;4939038;29;9303;-86
2022/06/14 12:12:22;;;;;;;;;;;;;;;;;;4938333;29;8389;-85
2022/06/14 12:14:58;;;;;;;;;;;;;;;;;;4938199;29;7032;-86
2022/06/14 12:17:31;;;;;;;;;;;;;;;;;;4938120;29;8409;-86
2022/06/14 12:20:04;;;;;;;;;;;;;;;;;;4937044;29;7526;-86
2022/06/14 12:22:37;;;;;;;;;;;;;;;;;;4938218;29;8495;-86
2022/06/14 12:28:01;;;;;;;;;;;;;;;;;;4920677;29;6933;-85
2022/06/14 12:30:29;;;;;;;;;;;;;;;;;;4919658;29;8853;-85
2022/06/14 12:33:00;;;;;;;;;;;;;;;;;;4934697;29;8635;-86
2022/06/14 12:35:29;;;;;;;;;;;;;;;;;;4919700;29;7461;-85
2022/06/14 12:37:55;;;;;;;;;;;;;;;;;;4934693;29;7265;-85
2022/06/14 12:40:31;;;;;;;;;;;;;;;;;;4919025;29;7160;-86
2022/06/14 12:43:02;;;;;;;;;;;;;;;;;;4919505;29;8423;-86
2022/06/14 12:45:36;;;;;;;;;;;;;;;;;;4935872;29;8478;-86
2022/06/14 12:48:15;;;;;;;;;;;;;;;;;;4937994;29;8721;-86
2022/06/14 12:50:43;;;;;;;;;;;;;;;;;;4937579;29;8393;-86
2022/06/14 12:53:12;;;;;;;;;;;;;;;;;;4937511;29;8302;-86
2022/06/14 12:55:42;;;;;;;;;;;;;;;;;;4953468;28;7043;-87
2022/06/14 12:58:20;;;;;;;;;;;;;;;;;;4937776;29;7064;-86
2022/06/14 13:00:51;;;;;;;;;;;;;;;;;;4949150;28;8843;-86
2022/06/14 13:03:34;;;;;;;;;;;;;;;;;;4934556;29;7115;-84
2022/06/14 13:06:23;;;;;;;;;;;;;;;;;;4950344;28;7195;-84
2022/06/14 13:08:57;;;;;;;;;;;;;;;;;;4935074;28;8808;-83
2022/06/14 13:11:32;;;;;;;;;;;;;;;;;;4928732;29;7420;-84
2022/06/14 13:14:15;;;;;;;;;;;;;;;;;;4934780;29;8469;-83
2022/06/14 13:16:59;;;;;;;;;;;;;;;;;;4950176;28;8550;-82
2022/06/14 13:19:31;;;;;;;;;;;;;;;;;;4930192;29;8425;-83
2022/06/14 13:22:22;;;;;;;;;;;;;;;;;;4933665;29;8409;-81
2022/06/14 13:24:48;;;;;;;;;;;;;;;;;;4917974;29;8734;-82
2022/06/14 13:27:22;;;;;;;;;;;;;;;;;;4935635;29;7232;-81
2022/06/14 13:29:48;;;;;;;;;;;;;;;;;;4927651;29;8354;-81
2022/06/14 13:32:32;;;;;;;;;;;;;;;;;;4926352;29;7262;-81
2022/06/14 13:35:09;;;;;;;;;;;;;;;;;;4918044;29;7403;-81
2022/06/14 13:37:44;;;;;;;;;;;;;;;;;;4919016;29;7009;-82
2022/06/14 13:40:19;;;;;;;;;;;;;;;;;;4921181;29;8502;-81
2022/06/14 13:42:57;;;;;;;;;;;;;;;;;;4926210;28;7175;-82
2022/06/14 13:45:22;;;;;;;;;;;;;;;;;;4939337;28;7105;-82
2022/06/14 13:48:06;;;;;;;;;;;;;;;;;;4939489;28;7165;-85
2022/06/14 14:03:50;;;;;;;;;;;;;;;;;;6097453;23;1446131;-57
2022/06/14 14:06:16;;;;;;;;;;;;;;;;;;6136387;23;7427;-57
2022/06/14 14:08:47;;;;;;;;;;;;;;;;;;6137298;23;7037;-57
2022/06/14 14:11:35;;;;;;;;;;;;;;;;;;6137242;23;7072;-57
2022/06/14 14:14:20;;;;;;;;;;;;;;;;;;6112427;23;8469;-57
2022/06/14 14:17:04;;;;;;;;;;;;;;;;;;6137046;23;7002;-57
2022/06/14 14:19:36;;;;;;;;;;;;;;;;;;6137115;23;6915;-57
2022/06/14 14:22:10;;;;;;;;;;;;;;;;;;6137101;23;6946;-57
2022/06/14 14:24:43;;;;;;;;;;;;;;;;;;6111202;23;8657;-57
2022/06/14 14:27:18;;;;;;;;;;;;;;;;;;6137132;23;6811;-56
2022/06/14 14:29:48;;;;;;;;;;;;;;;;;;6136919;23;7948;-57
2022/06/14 14:32:20;;;;;;;;;;;;;;;;;;6137102;23;7132;-57
2022/06/14 14:34:52;;;;;;;;;;;;;;;;;;6137293;23;7202;-57
2022/06/14 14:37:31;;;;;;;;;;;;;;;;;;6137849;23;7049;-57
2022/06/14 14:40:07;;;;;;;;;;;;;;;;;;6136836;23;7122;-57
2022/06/14 14:42:47;;;;;;;;;;;;;;;;;;6136526;23;7098;-57
2022/06/14 14:45:21;;;;;;;;;;;;;;;;;;6137015;23;7396;-57
2022/06/14 14:47:57;;;;;;;;;;;;;;;;;;6135861;23;7183;-57
2022/06/14 14:50:41;;;;;;;;;;;;;;;;;;6136063;23;7076;-57
2022/06/14 14:53:12;;;;;;;;;;;;;;;;;;6136862;23;7165;-57
2022/06/14 14:55:47;;;;;;;;;;;;;;;;;;6135821;23;7399;-57
2022/06/14 14:58:12;;;;;;;;;;;;;;;;;;6134981;23;7230;-57
2022/06/14 15:07:03;;;;;;;;;;;;;;;;;;6129088;23;6804;-57
2022/06/14 15:09:32;;;;;;;;;;;;;;;;;;6129046;23;7112;-57
2022/06/14 15:12:01;;;;;;;;;;;;;;;;;;6130744;23;7258;-57
2022/06/14 15:14:27;;;;;;;;;;;;;;;;;;6130940;23;6995;-57
2022/06/14 15:19:57;;;;;;;;;;;;;;;;;;6130612;23;6931;-57
2022/06/14 15:22:42;;;;;;;;;;;;;;;;;;6129908;23;6885;-57
2022/06/14 15:25:14;;;;;;;;;;;;;;;;;;6130284;23;7036;-57
2022/06/14 15:27:42;;;;;;;;;;;;;;;;;;6130677;23;6938;-58
2022/06/14 15:30:17;;;;;;;;;;;;;;;;;;6130176;23;6980;-57
2022/06/14 15:32:43;;;;;;;;;;;;;;;;;;6130024;23;7158;-57
2022/06/14 15:35:18;;;;;;;;;;;;;;;;;;6129601;23;7401;-57
2022/06/14 15:38:01;;;;;;;;;;;;;;;;;;6131100;23;6956;-56
2022/06/14 15:40:27;;;;;;;;;;;;;;;;;;6130567;23;6967;-56
2022/06/14 15:42:56;;;;;;;;;;;;;;;;;;6128757;23;7190;-57
2022/06/14 15:45:21;;;;;;;;;;;;;;;;;;6130256;23;7240;-57
2022/06/14 15:47:54;;;;;;;;;;;;;;;;;;6054178;23;7151;-57
2022/06/14 15:50:29;;;;;;;;;;;;;;;;;;6129828;23;6892;-58
2022/06/14 15:52:57;;;;;;;;;;;;;;;;;;6130064;23;6846;-57
2022/06/14 15:55:27;;;;;;;;;;;;;;;;;;6129672;23;7258;-58
2022/06/14 15:58:06;;;;;;;;;;;;;;;;;;6129927;23;7112;-57
2022/06/14 16:00:35;;;;;;;;;;;;;;;;;;6129911;23;7227;-57
2022/06/14 16:03:00;;;;;;;;;;;;;;;;;;6129886;23;7164;-57
2022/06/14 16:05:29;;;;;;;;;;;;;;;;;;6129445;23;8104;-56
2022/06/14 16:08:00;;;;;;;;;;;;;;;;;;6129146;23;7203;-56
2022/06/14 16:10:32;;;;;;;;;;;;;;;;;;6129555;23;7187;-57
2022/06/14 16:13:03;;;;;;;;;;;;;;;;;;6129224;23;7107;-57
2022/06/14 16:15:37;;;;;;;;;;;;;;;;;;6129529;23;7454;-58
2022/06/14 16:18:15;;;;;;;;;;;;;;;;;;6129404;23;7366;-57
2022/06/14 16:20:41;;;;;;;;;;;;;;;;;;6129078;23;7441;-57
2022/06/14 16:23:13;;;;;;;;;;;;;;;;;;6129424;23;7026;-57
2022/06/14 16:25:55;;;;;;;;;;;;;;;;;;6129612;23;6941;-57
2022/06/14 16:28:23;;;;;;;;;;;;;;;;;;6129312;23;7116;-57
2022/06/14 16:31:12;;;;;;;;;;;;;;;;;;6129344;23;7205;-56
2022/06/14 16:34:04;;;;;;;;;;;;;;;;;;6117220;23;6826;-57
2022/06/14 16:36:29;;;;;;;;;;;;;;;;;;6095567;23;7191;-57
2022/06/14 16:38:58;;;;;;;;;;;;;;;;;;6129308;23;7190;-57
2022/06/14 16:41:34;;;;;;;;;;;;;;;;;;6129352;23;7161;-57
2022/06/14 16:44:00;;;;;;;;;;;;;;;;;;6129409;23;7389;-57
2022/06/14 16:46:37;;;;;;;;;;;;;;;;;;6129268;23;7106;-57
2022/06/14 16:49:28;;;;;;;;;;;;;;;;;;6128149;23;7423;-57
2022/06/14 16:52:00;;;;;;;;;;;;;;;;;;6128993;23;7138;-57
2022/06/14 16:54:47;;;;;;;;;;;;;;;;;;6129287;23;8335;-57
2022/06/14 16:57:21;;;;;;;;;;;;;;;;;;6129295;23;7350;-57
2022/06/14 17:00:00;;;;;;;;;;;;;;;;;;6128901;23;7236;-57
2022/06/14 17:03:07;;;;;;;;;;;;;;;;;;6129160;23;7100;-57
2022/06/14 17:05:36;;;;;;;;;;;;;;;;;;6128022;23;7217;-57
2022/06/14 17:08:09;;;;;;;;;;;;;;;;;;6128712;23;6944;-57
2022/06/14 17:10:57;;;;;;;;;;;;;;;;;;6128475;23;6969;-57
2022/06/14 17:13:33;;;;;;;;;;;;;;;;;;6128756;23;7200;-57
2022/06/14 17:16:11;;;;;;;;;;;;;;;;;;6129721;23;7019;-57
2022/06/14 17:18:44;;;;;;;;;;;;;;;;;;6129355;23;6955;-57
2022/06/14 17:21:22;;;;;;;;;;;;;;;;;;6128918;23;6892;-57
2022/06/14 17:24:06;;;;;;;;;;;;;;;;;;6130033;23;7160;-57
2022/06/14 17:32:28;;;;;;;;;;;;;;;;;;6128948;23;6909;-57
2022/06/14 17:34:57;;;;;;;;;;;;;;;;;;6129222;23;7155;-57
2022/06/14 17:37:22;;;;;;;;;;;;;;;;;;6129129;23;7449;-57
2022/06/14 17:40:06;;;;;;;;;;;;;;;;;;6128625;23;7417;-57
2022/06/14 17:42:38;;;;;;;;;;;;;;;;;;6129666;23;7408;-56
2022/06/14 17:45:12;;;;;;;;;;;;;;;;;;6129460;23;7106;-57
2022/06/14 17:47:51;;;;;;;;;;;;;;;;;;6128748;23;7518;-57
2022/06/14 17:50:16;;;;;;;;;;;;;;;;;;6128353;23;7163;-57
2022/06/14 17:52:55;;;;;;;;;;;;;;;;;;6128597;23;7182;-57
2022/06/14 17:55:52;;;;;;;;;;;;;;;;;;6103709;23;7141;-57
2022/06/14 17:58:39;;;;;;;;;;;;;;;;;;6052427;23;7205;-59
2022/06/14 18:01:14;;;;;;;;;;;;;;;;;;6130959;23;7054;-58
2022/06/14 18:03:59;;;;;;;;;;;;;;;;;;6129085;23;7397;-58
2022/06/14 18:06:45;;;;;;;;;;;;;;;;;;6128934;23;6819;-58
2022/06/14 18:09:11;;;;;;;;;;;;;;;;;;6129098;23;6867;-57
2022/06/14 18:11:51;;;;;;;;;;;;;;;;;;6129071;23;7305;-57
2022/06/14 18:14:28;;;;;;;;;;;;;;;;;;6127653;23;7026;-57
2022/06/14 18:16:56;;;;;;;;;;;;;;;;;;6128651;23;7208;-57
2022/06/14 18:22:45;;;;;;;;;;;;;;;;;;6129167;23;7021;-57
2022/06/14 18:25:14;;;;;;;;;;;;;;;;;;6109731;23;7073;-57
2022/06/14 18:27:53;;;;;;;;;;;;;;;;;;6128778;23;7094;-57
2022/06/14 18:30:39;;;;;;;;;;;;;;;;;;6128409;23;7145;-57